METAR AND TAF INFORMATION
METAR FOR DTTA
ADDS - METARS form results

(1419 UTC 12 June 2021)
Data provider http://aviationweather.gov/metar/data/
 
METAR text: DTTA 121400Z 01008KT 340V050 9999 FEW026 29/09 Q1018
Conditions at: DTTA (TUNIS/CARTHAGE , TN) observed 1400 UTC 12 June 2021
Temperature: 29.0°C (84°F)
Dewpoint: 9.0°C (48°F) [RH = 29%]
Pressure (altimeter): 30.06 inches Hg (1018.0 mb)
Winds: from the N (10 degrees) at 9 MPH (8 knots; 4.1 m/s)
Visibility: 6 or more miles (10+ km)
Ceiling: at least 12,000 feet AGL
Clouds: few clouds at 2600 feet AGL
Weather: no significant weather observed at this time

METAR text: DTTA 121330Z 36010KT 340V040 9999 FEW026 29/08 Q1018
Conditions at: DTTA (TUNIS/CARTHAGE , TN) observed 1330 UTC 12 June 2021
Temperature: 29.0°C (84°F)
Dewpoint: 8.0°C (46°F) [RH = 27%]
Pressure (altimeter): 30.06 inches Hg (1018.0 mb)
Winds: from the N (360 degrees) at 12 MPH (10 knots; 5.1 m/s)
Visibility: 6 or more miles (10+ km)
Ceiling: at least 12,000 feet AGL
Clouds: few clouds at 2600 feet AGL
Weather: no significant weather observed at this time

Forecast for: DTTA (TUNIS/CARTHAGE , TN)
Text: TAF DTTA 121100Z 1212/1312 02010KT 9999 FEW026
Forecast period: 1200 to 2000 UTC 12 June 2021
Forecast type: FROM: standard forecast or significant change
Winds: from the NNE (20 degrees) at 12 MPH (10 knots; 5.1 m/s)
Visibility: 6 or more miles (10+ km)
Ceiling: at least 12,000 feet AGL
Clouds: few clouds at 2600 feet AGL
Weather: no significant weather forecast for this period
Text: BECMG 1220/1222 VRB02KT
Forecast period: 2000 UTC 12 June 2021 to 1200 UTC 13 June 2021
Forecast type: BECOMING: Conditions expected to become as follows by 2200 UTC 12 June 2021
Winds: variable direction winds at 2 MPH (2 knots; 1.0 m/s)
Visibility: 6 or more miles (10+ km)
Ceiling: at least 12,000 feet AGL
Clouds: few clouds at 2600 feet AGL
Weather: no significant weather forecast for this period

 AIRPORT MAP

 RUNWAY INFORMATION
Runway 01 Runway length 10499 ft Runway width 148 ft
Runway elevation 13 ft Runway displaced threshold 0 ft Runway heading 12
Runway 19 Runway length 10499 ft Runway width 148 ft
Runway elevation 21 ft Runway displaced threshold 0 ft Runway heading 192
Runway 11 Runway length 9318 ft Runway width 148 ft
Runway elevation 19 ft Runway displaced threshold 0 ft Runway heading 113
Runway 29 Runway length 9318 ft Runway width 148 ft
Runway elevation 11 ft Runway displaced threshold 657 ft Runway heading 293

 AIRPORT FREQUENCIES
Type APP Name TUNIS APP Frequency 121.2 MHZ
Type ATIS Name TUNIS ATIS Frequency 118.675 MHZ
Type GND Name TUNIS GND Frequency 121.9 MHZ
Type TWR Name TUNIS TWR Frequency 118.1 MHZ

 AIRPORT NEAR NAVIGATION AIDS
Type NDB Name Tunis Frequency 386 KHZ
Type NDB Name Tunis Frequency 325 KHZ
Type VOR-DME Name Tunis Frequency 116500 KHZ



Powered by Western Air Virtual